Time;durP1;ratioP1;P1;durP2;ratioP2;P2;SDS_P1;SDS_P2;PMS_P1;PMS_P2;Temp;Humidity;BMP_temperature;BMP_pressure;BME280_temperature;BME280_humidity;BME280_pressure;Samples;Min_cycle;Max_cycle;Signal;HPM_P1;HPM_P2
2022/08/29 00:02:24;;;;;;;6.07;3.33;;;21.50;98.70;;;;;;5116766;28;20035;-71
2022/08/29 00:04:50;;;;;;;6.93;3.22;;;21.40;98.80;;;;;;5121983;28;20019;-71
2022/08/29 00:07:16;;;;;;;4.97;3.25;;;21.40;98.90;;;;;;5123917;27;20495;-71
2022/08/29 00:09:42;;;;;;;3.80;3.35;;;21.40;98.90;;;;;;5123990;27;20360;-71
2022/08/29 00:12:08;;;;;;;5.20;3.53;;;21.40;99.00;;;;;;5124050;27;20022;-71
2022/08/29 00:14:34;;;;;;;4.60;3.22;;;21.40;99.10;;;;;;5124209;28;20472;-71
2022/08/29 00:17:00;;;;;;;4.13;2.97;;;21.30;99.20;;;;;;5121953;28;20475;-71
2022/08/29 00:19:27;;;;;;;5.88;3.55;;;21.30;99.20;;;;;;5124131;27;20072;-71
2022/08/29 00:21:53;;;;;;;5.88;3.50;;;21.30;99.30;;;;;;5122476;28;20047;-71
2022/08/29 00:24:19;;;;;;;4.65;3.30;;;21.30;99.50;;;;;;5123372;27;20023;-71
2022/08/29 00:26:45;;;;;;;4.22;3.33;;;21.30;99.50;;;;;;5122260;28;20122;-71
2022/08/29 00:29:11;;;;;;;5.55;3.70;;;21.20;99.60;;;;;;5123975;27;20099;-71
2022/08/29 00:31:37;;;;;;;6.22;3.80;;;21.20;99.90;;;;;;5123521;27;20399;-71
2022/08/29 00:34:03;;;;;;;4.15;3.28;;;21.20;99.90;;;;;;5123414;27;20012;-71
2022/08/29 00:36:28;;;;;;;6.25;3.60;;;21.20;99.90;;;;;;5123724;28;20123;-71
2022/08/29 00:38:56;;;;;;;7.97;3.60;;;21.20;99.90;;;;;;5123317;28;20492;-71
2022/08/29 00:41:21;;;;;;;8.13;3.90;;;21.30;99.90;;;;;;5114587;28;20084;-71
2022/08/29 00:43:47;;;;;;;5.28;3.28;;;21.20;99.90;;;;;;5122192;28;20056;-71
2022/08/29 00:46:35;;;;;;;4.97;4.07;;;21.20;99.90;;;;;;5123494;27;20020;-71
2022/08/29 00:49:24;;;;;;;8.18;3.70;;;21.10;99.90;;;;;;5121781;27;20039;-71
2022/08/29 00:51:51;;;;;;;9.75;4.07;;;21.10;99.90;;;;;;5109972;28;20393;-71
2022/08/29 00:54:17;;;;;;;6.40;3.25;;;21.10;99.90;;;;;;5116066;28;20058;-71
2022/08/29 00:56:44;;;;;;;4.45;3.67;;;21.10;99.90;;;;;;5115487;28;20024;-71
2022/08/29 00:59:17;;;;;;;6.60;3.42;;;21.10;99.90;;;;;;5119050;28;20026;-71
2022/08/29 01:01:44;;;;;;;5.38;3.85;;;21.00;99.90;;;;;;5118840;28;20114;-71
2022/08/29 01:04:10;;;;;;;6.47;3.42;;;21.00;99.90;;;;;;5120282;28;20425;-71
2022/08/29 01:06:38;;;;;;;5.80;3.28;;;21.00;99.90;;;;;;5119734;28;20023;-71
2022/08/29 01:09:05;;;;;;;8.18;3.40;;;21.00;99.90;;;;;;5119806;28;20487;-71
2022/08/29 01:14:18;;;;;;;4.70;3.45;;;20.90;99.90;;;;;;5120195;28;20030;-71
2022/08/29 01:16:45;;;;;;;4.93;3.50;;;20.90;99.90;;;;;;5118117;27;20020;-71
2022/08/29 01:19:34;;;;;;;5.53;3.50;;;20.90;99.90;;;;;;5109131;28;20028;-71
2022/08/29 01:22:41;;;;;;;4.35;3.65;;;20.80;99.90;;;;;;5105854;28;20108;-71
2022/08/29 01:25:12;;;;;;;4.47;3.65;;;20.80;99.90;;;;;;5119659;28;20480;-71
2022/08/29 01:27:40;;;;;;;6.22;3.40;;;20.80;99.90;;;;;;5119319;28;20059;-71
2022/08/29 01:30:08;;;;;;;4.22;3.55;;;20.70;99.90;;;;;;5119572;28;20023;-71
2022/08/29 01:32:34;;;;;;;6.53;3.38;;;20.70;99.90;;;;;;5114643;28;20119;-71
2022/08/29 01:35:00;;;;;;;4.20;3.60;;;20.70;99.90;;;;;;5119623;27;20048;-71
2022/08/29 01:37:31;;;;;;;4.43;3.45;;;20.70;99.90;;;;;;5117459;28;20088;-71
2022/08/29 01:39:56;;;;;;;4.43;3.25;;;20.60;99.90;;;;;;5119598;28;20502;-71
2022/08/29 01:42:23;;;;;;;3.95;3.13;;;20.60;99.90;;;;;;5116741;28;20470;-72
2022/08/29 01:44:55;;;;;;;6.40;3.60;;;20.50;99.90;;;;;;5119392;28;20480;-71
2022/08/29 01:47:24;;;;;;;4.18;3.60;;;20.50;99.90;;;;;;5119362;28;20387;-71
2022/08/29 01:49:49;;;;;;;4.10;3.22;;;20.50;99.90;;;;;;5118953;28;20023;-71
2022/08/29 01:52:15;;;;;;;4.43;3.90;;;20.50;99.90;;;;;;5118918;28;20496;-71
2022/08/29 01:54:43;;;;;;;5.80;3.38;;;20.50;99.90;;;;;;5119163;28;20019;-71
2022/08/29 01:57:11;;;;;;;3.90;3.40;;;20.40;99.90;;;;;;5114622;28;20016;-71
2022/08/29 01:59:37;;;;;;;5.82;3.63;;;20.50;99.90;;;;;;5119112;28;20034;-71
2022/08/29 02:02:19;;;;;;;4.53;3.88;;;20.50;99.90;;;;;;5118285;28;20103;-71
2022/08/29 02:04:47;;;;;;;6.38;4.03;;;20.50;99.90;;;;;;5117702;28;20530;-71
2022/08/29 02:07:16;;;;;;;7.22;3.50;;;20.50;99.90;;;;;;5118767;28;20020;-71
2022/08/29 02:09:42;;;;;;;4.30;3.60;;;20.40;99.90;;;;;;5117601;28;20387;-71
2022/08/29 02:12:08;;;;;;;6.18;4.10;;;20.30;99.90;;;;;;5108348;28;20015;-71
2022/08/29 02:14:34;;;;;;;4.93;3.75;;;20.30;99.90;;;;;;5118605;28;20116;-71
2022/08/29 02:17:03;;;;;;;4.75;3.95;;;20.30;99.90;;;;;;5114961;28;20559;-71
2022/08/29 02:19:29;;;;;;;6.13;3.20;;;20.30;99.90;;;;;;5109122;28;20032;-71
2022/08/29 02:21:56;;;;;;;5.72;3.30;;;20.30;99.90;;;;;;5118526;28;20467;-71
2022/08/29 02:24:22;;;;;;;6.15;3.85;;;20.30;99.90;;;;;;5116561;28;20023;-71
2022/08/29 02:26:47;;;;;;;3.67;3.28;;;20.30;99.90;;;;;;5117831;28;20042;-71
2022/08/29 02:29:13;;;;;;;4.05;3.58;;;20.20;99.90;;;;;;5114744;28;20031;-71
2022/08/29 02:31:41;;;;;;;5.35;3.78;;;20.20;99.90;;;;;;5116989;28;20540;-71
2022/08/29 02:34:07;;;;;;;6.80;4.05;;;20.20;99.90;;;;;;5109047;28;20387;-71
2022/08/29 02:36:34;;;;;;;7.05;3.78;;;20.20;99.90;;;;;;5118125;27;20071;-71
2022/08/29 02:39:00;;;;;;;7.65;3.80;;;20.20;99.90;;;;;;5118096;28;20016;-71
2022/08/29 02:41:26;;;;;;;6.47;4.18;;;20.20;99.90;;;;;;5115793;28;20015;-71
2022/08/29 02:43:52;;;;;;;8.43;4.40;;;20.20;99.90;;;;;;5118550;28;20084;-71
2022/08/29 02:46:19;;;;;;;6.10;4.18;;;20.10;99.90;;;;;;5117811;28;20019;-71
2022/08/29 02:48:46;;;;;;;8.05;4.35;;;20.10;99.90;;;;;;5118185;28;20395;-71
2022/08/29 02:51:28;;;;;;;11.32;4.10;;;20.10;99.90;;;;;;5115457;28;20027;-71
2022/08/29 02:53:54;;;;;;;9.40;4.55;;;20.10;99.90;;;;;;5117921;28;20059;-71
2022/08/29 02:56:20;;;;;;;5.60;4.00;;;20.10;99.90;;;;;;5116648;28;20023;-71
2022/08/29 02:58:46;;;;;;;4.63;4.10;;;20.10;99.90;;;;;;5117547;28;20484;-71
2022/08/29 03:01:13;;;;;;;7.72;4.35;;;20.00;99.90;;;;;;5117633;28;20106;-71
2022/08/29 03:03:39;;;;;;;5.85;4.10;;;20.00;99.90;;;;;;5117930;28;20043;-71
2022/08/29 03:06:05;;;;;;;4.57;3.97;;;20.00;99.90;;;;;;5117335;28;20032;-71
2022/08/29 03:08:31;;;;;;;5.13;4.20;;;20.00;99.90;;;;;;5116900;28;20023;-71
2022/08/29 03:10:57;;;;;;;6.57;3.90;;;20.00;99.90;;;;;;5117655;28;20031;-71
2022/08/29 03:13:23;;;;;;;5.53;4.22;;;20.00;99.90;;;;;;5116552;28;20011;-71
2022/08/29 03:15:49;;;;;;;6.00;4.50;;;20.00;99.90;;;;;;5117929;28;20034;-71
2022/08/29 03:18:14;;;;;;;5.47;3.70;;;20.00;99.90;;;;;;5104794;28;20060;-71
2022/08/29 03:20:40;;;;;;;4.45;4.05;;;20.00;99.90;;;;;;5116422;28;20027;-71
2022/08/29 03:23:07;;;;;;;6.20;3.70;;;20.00;99.90;;;;;;5117352;28;20026;-71
2022/08/29 03:25:34;;;;;;;9.57;4.10;;;20.00;99.90;;;;;;5117512;28;20027;-71
2022/08/29 03:28:00;;;;;;;7.25;4.80;;;20.00;99.90;;;;;;5117446;28;20093;-71
2022/08/29 03:30:28;;;;;;;6.38;4.43;;;20.10;99.90;;;;;;5117416;28;20027;-71
2022/08/29 03:32:54;;;;;;;5.88;4.40;;;20.10;99.90;;;;;;5111972;28;20020;-71
2022/08/29 03:35:21;;;;;;;7.65;4.38;;;20.10;99.90;;;;;;5117764;28;20020;-71
2022/08/29 03:37:48;;;;;;;5.03;4.53;;;20.20;99.90;;;;;;5109059;28;20020;-71
2022/08/29 03:40:15;;;;;;;5.82;3.88;;;20.20;99.90;;;;;;5117036;28;20048;-71
2022/08/29 03:42:41;;;;;;;9.27;4.90;;;20.30;99.90;;;;;;5112273;28;20142;-71
2022/08/29 03:45:11;;;;;;;8.90;4.43;;;20.30;99.90;;;;;;5117473;28;20020;-71
2022/08/29 03:47:37;;;;;;;7.20;4.65;;;20.30;99.90;;;;;;5117069;28;20095;-71
2022/08/29 03:50:03;;;;;;;7.63;4.95;;;20.30;99.90;;;;;;5117259;28;20019;-72
2022/08/29 03:52:30;;;;;;;11.95;4.90;;;20.30;99.90;;;;;;5116923;28;20434;-71
2022/08/29 03:54:56;;;;;;;8.38;4.97;;;20.30;99.90;;;;;;5117664;28;20019;-71
2022/08/29 03:57:22;;;;;;;6.35;4.43;;;20.40;99.90;;;;;;5117340;28;20016;-71
2022/08/29 03:59:48;;;;;;;10.13;4.78;;;20.50;99.90;;;;;;5116770;28;20023;-71
2022/08/29 04:02:14;;;;;;;7.00;4.07;;;20.60;99.90;;;;;;5117290;28;20032;-71
2022/08/29 04:07:24;;;;;;;6.63;4.22;;;20.80;99.90;;;;;;5116975;28;20077;-71
2022/08/29 04:09:50;;;;;;;6.30;4.10;;;20.90;99.90;;;;;;5117085;28;20028;-71
2022/08/29 04:12:16;;;;;;;9.27;4.80;;;21.00;99.90;;;;;;5117179;28;20038;-71
2022/08/29 04:14:42;;;;;;;7.53;4.30;;;21.10;99.90;;;;;;5117081;28;20035;-72
2022/08/29 04:17:09;;;;;;;6.85;4.18;;;21.10;99.90;;;;;;5112391;28;20084;-71
2022/08/29 04:19:35;;;;;;;6.93;4.43;;;21.10;99.90;;;;;;5108266;28;20031;-71
2022/08/29 04:22:03;;;;;;;4.85;3.97;;;21.10;99.90;;;;;;5116800;28;20026;-71
2022/08/29 04:24:33;;;;;;;8.32;4.88;;;21.10;99.90;;;;;;5117477;28;20110;-72
2022/08/29 04:26:58;;;;;;;7.17;4.70;;;21.20;99.90;;;;;;5119326;28;20047;-71
2022/08/29 04:29:25;;;;;;;7.70;4.38;;;21.20;99.90;;;;;;5121001;28;20011;-71
2022/08/29 04:31:51;;;;;;;7.90;5.07;;;21.30;99.90;;;;;;5120395;28;20063;-71
2022/08/29 04:34:17;;;;;;;4.38;3.83;;;21.40;99.90;;;;;;5120914;28;20015;-71
2022/08/29 04:36:47;;;;;;;5.82;4.20;;;21.50;99.90;;;;;;5120679;28;20027;-71
2022/08/29 04:39:13;;;;;;;4.32;3.80;;;21.50;99.90;;;;;;5112896;28;20030;-71
2022/08/29 04:41:40;;;;;;;5.88;3.85;;;21.50;99.90;;;;;;5118082;28;20027;-71
2022/08/29 04:44:07;;;;;;;8.15;4.20;;;21.50;99.90;;;;;;5120629;28;20799;-71
2022/08/29 04:46:33;;;;;;;8.85;4.03;;;21.40;99.90;;;;;;5105746;28;20522;-71
2022/08/29 04:48:59;;;;;;;7.10;4.72;;;21.40;99.90;;;;;;5119263;28;20027;-71
2022/08/29 04:51:24;;;;;;;7.10;4.68;;;21.40;99.90;;;;;;5120308;28;20031;-71
2022/08/29 04:53:52;;;;;;;6.70;4.60;;;21.30;99.90;;;;;;5120264;28;20514;-71
2022/08/29 04:56:18;;;;;;;5.30;4.22;;;21.30;99.90;;;;;;5120654;28;20172;-71
2022/08/29 04:58:46;;;;;;;5.45;4.28;;;21.20;99.90;;;;;;5120311;27;20023;-72
2022/08/29 05:01:14;;;;;;;4.78;4.03;;;21.20;99.90;;;;;;5120276;28;20110;-71
2022/08/29 05:03:40;;;;;;;4.10;3.70;;;21.10;99.90;;;;;;5118910;28;20127;-71
2022/08/29 05:06:13;;;;;;;5.65;4.32;;;21.00;99.90;;;;;;5120521;28;20027;-71
2022/08/29 05:08:41;;;;;;;5.85;3.80;;;20.90;99.90;;;;;;5115099;28;20024;-71
2022/08/29 05:11:11;;;;;;;8.23;4.05;;;21.00;99.90;;;;;;5120146;28;20020;-71
2022/08/29 05:13:37;;;;;;;7.68;4.30;;;20.90;99.90;;;;;;5118862;28;20027;-71
2022/08/29 05:16:09;;;;;;;5.15;3.80;;;20.80;99.90;;;;;;5120063;28;20099;-71
2022/08/29 05:18:35;;;;;;;7.80;4.43;;;20.80;99.90;;;;;;5106967;27;20020;-71
2022/08/29 05:21:01;;;;;;;8.55;4.25;;;20.80;99.90;;;;;;5118666;28;20027;-71
2022/08/29 05:23:27;;;;;;;4.40;3.95;;;20.70;99.90;;;;;;5116118;28;20019;-71
2022/08/29 05:25:58;;;;;;;5.05;3.70;;;20.70;99.90;;;;;;5118498;28;20031;-71
2022/08/29 05:28:25;;;;;;;7.03;4.22;;;20.70;99.90;;;;;;5115300;28;20040;-71
2022/08/29 05:30:51;;;;;;;5.00;4.30;;;20.70;99.90;;;;;;5119701;28;20090;-71
2022/08/29 05:33:17;;;;;;;4.32;3.72;;;20.70;99.90;;;;;;5107020;28;20103;-71
2022/08/29 05:35:43;;;;;;;9.50;4.45;;;20.70;99.90;;;;;;5117893;28;20117;-71
2022/08/29 05:38:10;;;;;;;12.43;5.28;;;20.80;99.90;;;;;;5117874;28;20015;-71
2022/08/29 05:40:36;;;;;;;7.28;4.20;;;20.80;99.90;;;;;;5119837;28;20030;-71
2022/08/29 05:43:03;;;;;;;8.68;4.82;;;20.80;99.90;;;;;;5115536;28;20529;-71
2022/08/29 05:45:29;;;;;;;14.38;5.13;;;20.80;99.90;;;;;;5109966;28;20231;-71
2022/08/29 05:47:55;;;;;;;8.23;4.18;;;20.80;99.90;;;;;;5107883;28;20048;-71
2022/08/29 05:50:22;;;;;;;5.97;4.32;;;20.80;99.90;;;;;;5115019;28;20020;-71
2022/08/29 05:52:47;;;;;;;6.63;4.43;;;20.80;99.90;;;;;;5107561;28;20016;-71
2022/08/29 05:55:14;;;;;;;7.53;4.35;;;20.80;99.90;;;;;;5119353;28;20031;-71
2022/08/29 05:57:40;;;;;;;6.85;4.60;;;20.80;99.90;;;;;;5119211;28;20019;-71
2022/08/29 06:00:08;;;;;;;6.53;4.45;;;20.90;99.90;;;;;;5117618;28;20049;-71
2022/08/29 06:02:34;;;;;;;6.45;4.50;;;20.90;99.90;;;;;;5118980;28;20391;-71
2022/08/29 06:05:00;;;;;;;7.30;4.45;;;21.00;99.90;;;;;;5118910;28;20038;-71
2022/08/29 06:07:25;;;;;;;6.47;4.53;;;21.10;99.90;;;;;;5117583;28;20023;-71
2022/08/29 06:09:51;;;;;;;4.72;4.00;;;21.10;99.90;;;;;;5118828;28;20027;-71
2022/08/29 06:12:18;;;;;;;9.73;4.47;;;21.20;99.90;;;;;;5118794;28;20016;-71
2022/08/29 06:14:44;;;;;;;7.38;4.20;;;21.40;99.90;;;;;;5117364;28;20392;-71
2022/08/29 06:17:10;;;;;;;6.72;4.75;;;21.60;99.90;;;;;;5113359;28;20020;-71
2022/08/29 06:19:38;;;;;;;7.40;5.30;;;21.70;99.90;;;;;;5110837;28;20391;-71
2022/08/29 06:22:06;;;;;;;10.75;4.43;;;22.00;99.90;;;;;;5114052;28;20069;-72
2022/08/29 06:24:33;;;;;;;6.95;3.95;;;22.10;99.90;;;;;;5106047;28;20063;-72
2022/08/29 06:27:00;;;;;;;5.38;4.53;;;22.30;99.90;;;;;;5113850;28;20051;-72
2022/08/29 06:29:26;;;;;;;7.30;4.20;;;22.40;99.90;;;;;;5118457;28;20022;-71
2022/08/29 06:31:56;;;;;;;8.63;4.28;;;22.60;99.90;;;;;;5105011;28;20019;-72
2022/08/29 06:34:23;;;;;;;9.32;4.80;;;22.80;99.90;;;;;;5118400;28;20027;-71
2022/08/29 06:36:50;;;;;;;5.25;3.85;;;22.90;99.90;;;;;;5103372;28;20020;-72
2022/08/29 06:39:18;;;;;;;7.03;4.20;;;23.20;99.90;;;;;;5117080;28;20028;-72
2022/08/29 06:41:44;;;;;;;4.85;4.00;;;23.30;99.90;;;;;;5118203;28;20110;-72
2022/08/29 06:44:09;;;;;;;4.95;4.05;;;23.40;99.90;;;;;;5118266;28;20055;-72
2022/08/29 06:46:38;;;;;;;4.82;3.65;;;23.40;99.90;;;;;;5116268;28;20023;-72
2022/08/29 06:49:08;;;;;;;7.65;4.32;;;23.40;99.90;;;;;;5110861;28;20483;-72
2022/08/29 06:51:39;;;;;;;7.97;3.75;;;23.40;99.90;;;;;;5116897;28;20027;-72
2022/08/29 06:54:07;;;;;;;4.55;3.63;;;23.40;99.90;;;;;;5112312;28;20382;-72
2022/08/29 06:56:34;;;;;;;5.55;4.00;;;23.40;99.90;;;;;;5116817;28;20019;-72
2022/08/29 06:59:00;;;;;;;5.72;3.58;;;23.40;99.90;;;;;;5118034;28;20030;-72
2022/08/29 07:01:26;;;;;;;7.68;3.92;;;23.30;99.90;;;;;;5116500;28;20028;-72
2022/08/29 07:03:53;;;;;;;10.75;4.07;;;23.30;99.90;;;;;;5116510;28;20063;-72
2022/08/29 07:06:20;;;;;;;5.20;3.53;;;23.40;99.90;;;;;;5118108;28;20373;-72
2022/08/29 07:08:46;;;;;;;7.03;4.20;;;23.40;99.90;;;;;;5117488;28;20510;-72
2022/08/29 07:11:12;;;;;;;5.18;3.60;;;23.50;99.90;;;;;;5117892;28;20107;-71
2022/08/29 07:13:39;;;;;;;8.50;3.42;;;23.50;99.90;;;;;;5117634;28;20048;-72
2022/08/29 07:16:15;;;;;;;15.27;3.70;;;23.50;99.90;;;;;;5117847;28;20020;-72
2022/08/29 07:18:44;;;;;;;8.20;3.65;;;23.60;99.90;;;;;;5114433;28;20034;-71
2022/08/29 07:21:17;;;;;;;4.68;3.72;;;23.50;99.90;;;;;;5117756;28;20019;-72
2022/08/29 07:23:43;;;;;;;4.95;3.38;;;23.60;99.90;;;;;;5114841;28;20070;-72
2022/08/29 07:26:17;;;;;;;11.63;3.65;;;23.60;99.90;;;;;;5112288;28;20016;-71
2022/08/29 07:28:45;;;;;;;5.60;3.17;;;23.70;99.90;;;;;;5117646;28;20039;-72
2022/08/29 07:31:11;;;;;;;9.38;3.50;;;23.90;99.90;;;;;;5115998;28;20020;-71
2022/08/29 07:33:37;;;;;;;5.43;3.00;;;24.20;99.90;;;;;;5116383;28;20445;-72
2022/08/29 07:36:03;;;;;;;6.18;3.20;;;24.40;99.90;;;;;;5116075;28;20114;-71
2022/08/29 07:38:31;;;;;;;5.00;3.97;;;24.50;99.90;;;;;;5117449;28;20020;-71
2022/08/29 07:41:05;;;;;;;7.78;3.67;;;24.60;99.90;;;;;;5117334;28;20038;-71
2022/08/29 07:43:32;;;;;;;8.43;3.42;;;24.90;99.90;;;;;;5117632;28;20024;-71
2022/08/29 07:45:57;;;;;;;10.05;3.80;;;25.10;99.90;;;;;;5117321;28;20027;-71
2022/08/29 07:48:25;;;;;;;6.10;3.28;;;25.40;99.90;;;;;;5117629;28;20038;-72
2022/08/29 07:50:51;;;;;;;11.00;3.45;;;25.60;99.90;;;;;;5117372;28;20020;-71
2022/08/29 07:53:17;;;;;;;6.70;3.13;;;25.80;99.90;;;;;;5107304;28;20019;-71
2022/08/29 07:55:44;;;;;;;5.10;3.30;;;25.80;99.90;;;;;;5110622;28;20019;-72
2022/08/29 07:58:10;;;;;;;6.07;2.95;;;26.00;99.90;;;;;;5116974;28;20028;-71
2022/08/29 08:00:36;;;;;;;6.45;3.60;;;26.00;99.90;;;;;;5121486;28;20064;-71
2022/08/29 08:03:03;;;;;;;6.10;3.63;;;26.00;99.90;;;;;;5121244;28;20593;-71
2022/08/29 08:05:28;;;;;;;8.43;3.20;;;25.90;99.90;;;;;;5121505;28;20430;-72
2022/08/29 08:07:54;;;;;;;6.25;2.90;;;25.90;99.90;;;;;;5121130;28;20012;-71
2022/08/29 08:10:20;;;;;;;3.60;2.75;;;25.90;99.90;;;;;;5119832;28;20432;-72
2022/08/29 08:12:47;;;;;;;7.20;3.17;;;26.00;99.90;;;;;;5119941;28;20027;-71
2022/08/29 08:15:15;;;;;;;6.63;3.50;;;25.90;99.90;;;;;;5121113;28;20016;-72
2022/08/29 08:17:41;;;;;;;13.35;3.97;;;25.80;99.90;;;;;;5116828;28;20102;-72
2022/08/29 08:20:08;;;;;;;8.85;3.15;;;25.80;99.90;;;;;;5111121;28;20036;-72
2022/08/29 08:22:35;;;;;;;9.25;3.72;;;25.80;99.90;;;;;;5120552;28;20027;-72
2022/08/29 08:25:02;;;;;;;5.53;3.00;;;25.70;99.90;;;;;;5121064;28;20027;-72
2022/08/29 08:27:27;;;;;;;6.50;3.67;;;25.80;99.90;;;;;;5115213;28;20078;-72
2022/08/29 08:29:53;;;;;;;7.38;3.53;;;25.80;99.90;;;;;;5120918;28;20023;-72
2022/08/29 08:32:19;;;;;;;9.65;3.15;;;25.80;99.90;;;;;;5119419;28;20031;-72
2022/08/29 08:34:45;;;;;;;5.97;3.63;;;26.00;99.90;;;;;;5118548;28;20107;-73
2022/08/29 08:37:11;;;;;;;5.78;3.22;;;26.20;99.90;;;;;;5119320;28;20092;-72
2022/08/29 08:39:37;;;;;;;6.55;3.03;;;26.40;99.90;;;;;;5120877;28;20046;-72
2022/08/29 08:42:13;;;;;;;5.10;3.05;;;26.70;99.90;;;;;;5120991;28;20031;-72
2022/08/29 08:45:06;;;;;;;6.88;3.28;;;27.00;99.90;;;;;;5120581;28;20106;-72
2022/08/29 08:47:48;;;;;;;6.63;3.50;;;27.10;99.40;;;;;;5118552;28;20034;-72
2022/08/29 08:50:50;;;;;;;4.88;2.80;;;27.30;99.90;;;;;;5117088;28;20015;-73
2022/08/29 08:53:40;;;;;;;4.68;3.53;;;27.50;99.70;;;;;;5104445;28;20031;-73
2022/08/29 08:56:34;;;;;;;7.88;3.95;;;27.60;99.30;;;;;;5117062;28;20020;-73
2022/08/29 08:59:15;;;;;;;5.65;3.63;;;27.50;99.30;;;;;;5114977;28;20031;-73
2022/08/29 09:02:00;;;;;;;5.32;2.97;;;27.60;99.30;;;;;;5110726;28;20476;-72
2022/08/29 09:04:56;;;;;;;4.65;3.55;;;27.80;99.00;;;;;;5118305;28;20024;-72
2022/08/29 09:07:38;;;;;;;5.38;2.53;;;27.90;99.60;;;;;;5117139;28;20411;-73
2022/08/29 09:10:15;;;;;;;4.75;2.92;;;27.90;99.20;;;;;;5112055;28;20020;-73
2022/08/29 09:12:46;;;;;;;8.38;2.72;;;27.80;99.10;;;;;;5120272;28;20119;-72
2022/08/29 09:15:22;;;;;;;9.77;3.85;;;27.70;99.60;;;;;;5109796;28;20019;-72
2022/08/29 09:17:53;;;;;;;7.03;3.05;;;27.80;99.90;;;;;;5109701;28;20016;-72
2022/08/29 09:20:33;;;;;;;6.32;3.03;;;27.90;99.40;;;;;;5117391;28;20012;-72
2022/08/29 09:23:00;;;;;;;5.20;2.90;;;28.00;99.80;;;;;;5118334;28;20435;-73
2022/08/29 09:25:28;;;;;;;3.33;2.55;;;27.90;98.60;;;;;;5119111;28;20024;-72
2022/08/29 09:27:54;;;;;;;7.10;3.03;;;27.80;98.60;;;;;;5119752;27;20570;-72
2022/08/29 09:30:23;;;;;;;6.38;2.85;;;27.60;99.10;;;;;;5119642;28;20078;-72
2022/08/29 09:33:06;;;;;;;6.25;2.47;;;27.70;99.50;;;;;;5115994;28;20035;-73
2022/08/29 09:35:39;;;;;;;4.05;2.70;;;28.00;98.70;;;;;;5119637;28;20027;-72
2022/08/29 09:38:20;;;;;;;3.60;2.78;;;28.20;97.80;;;;;;5119427;28;20016;-72
2022/08/29 09:41:09;;;;;;;5.30;3.10;;;28.50;97.20;;;;;;5109855;28;20028;-73
2022/08/29 09:43:38;;;;;;;6.53;2.47;;;28.40;96.60;;;;;;5119678;28;20050;-72
2022/08/29 09:46:09;;;;;;;4.78;2.88;;;28.30;95.80;;;;;;5119353;28;20053;-72
2022/08/29 09:49:11;;;;;;;4.40;2.95;;;28.20;96.90;;;;;;5118108;28;20111;-73
2022/08/29 09:51:40;;;;;;;5.78;2.72;;;28.40;95.40;;;;;;5119190;28;20101;-72
2022/08/29 09:54:14;;;;;;;8.60;2.78;;;28.70;94.20;;;;;;5119373;28;20012;-72
2022/08/29 09:56:56;;;;;;;8.95;2.50;;;28.90;93.90;;;;;;5118176;28;20590;-72
2022/08/29 09:59:32;;;;;;;9.18;2.53;;;29.20;93.60;;;;;;5119151;28;20031;-73
2022/08/29 10:02:23;;;;;;;7.38;2.38;;;29.30;92.80;;;;;;5119287;28;20035;-73
2022/08/29 10:04:51;;;;;;;5.55;2.42;;;29.40;93.10;;;;;;5119381;28;20421;-73
2022/08/29 10:07:26;;;;;;;5.35;3.05;;;29.40;92.60;;;;;;5114612;28;20487;-72
2022/08/29 10:10:11;;;;;;;10.27;2.42;;;29.30;92.60;;;;;;5110218;28;20020;-72
2022/08/29 10:12:40;;;;;;;4.88;2.10;;;29.30;92.80;;;;;;5118942;28;20024;-73
2022/08/29 10:15:33;;;;;;;5.03;2.20;;;29.40;92.10;;;;;;5118896;28;20020;-73
2022/08/29 10:18:26;;;;;;;4.57;2.33;;;29.50;91.80;;;;;;5110192;28;20020;-73
2022/08/29 10:21:03;;;;;;;6.00;2.70;;;29.50;92.50;;;;;;5117597;28;20110;-73
2022/08/29 10:23:28;;;;;;;6.05;2.22;;;29.60;92.10;;;;;;5110415;28;20027;-73
2022/08/29 10:25:57;;;;;;;8.55;2.50;;;29.60;91.80;;;;;;5118790;28;20021;-73
2022/08/29 10:28:58;;;;;;;6.50;2.95;;;29.50;92.10;;;;;;5118354;28;20051;-71
2022/08/29 10:31:41;;;;;;;6.07;2.72;;;29.30;92.30;;;;;;5104683;28;20381;-73
2022/08/29 10:34:19;;;;;;;3.42;2.65;;;29.40;92.40;;;;;;5118761;28;20024;-70
2022/08/29 10:36:53;;;;;;;4.32;3.13;;;29.40;92.50;;;;;;5116223;28;20103;-70
2022/08/29 10:39:41;;;;;;;7.40;2.50;;;29.40;92.70;;;;;;5118742;28;20028;-71
2022/08/29 10:42:13;;;;;;;6.03;1.90;;;29.30;93.00;;;;;;5108146;28;20016;-70
2022/08/29 10:44:46;;;;;;;8.38;2.40;;;29.40;92.50;;;;;;5118257;28;20107;-71
2022/08/29 10:47:36;;;;;;;4.80;2.75;;;29.50;92.80;;;;;;5108223;28;20027;-70
2022/08/29 10:50:32;;;;;;;6.20;2.33;;;29.70;93.00;;;;;;5118206;28;20110;-73
2022/08/29 10:53:24;;;;;;;5.68;2.13;;;29.90;92.80;;;;;;5117959;28;20521;-71
2022/08/29 10:55:59;;;;;;;10.10;2.70;;;30.20;92.70;;;;;;5113427;28;20017;-71
2022/08/29 10:58:30;;;;;;;4.75;2.28;;;30.20;92.30;;;;;;5117992;28;20087;-71
2022/08/29 11:01:06;;;;;;;6.38;1.98;;;30.10;92.90;;;;;;5117247;28;20069;-73
2022/08/29 11:03:46;;;;;;;6.38;2.17;;;30.10;92.50;;;;;;5118152;28;20024;-72
2022/08/29 11:06:23;;;;;;;5.57;2.45;;;30.00;92.70;;;;;;5117908;28;20425;-73
2022/08/29 11:09:02;;;;;;;5.30;2.20;;;30.10;92.30;;;;;;5112066;28;20110;-72
2022/08/29 11:11:31;;;;;;;7.63;2.00;;;30.30;92.70;;;;;;5109387;28;20357;-73
2022/08/29 11:14:01;;;;;;;5.63;2.78;;;30.50;92.70;;;;;;5117842;28;20047;-72
2022/08/29 11:16:37;;;;;;;13.20;3.00;;;30.60;92.50;;;;;;5117666;28;20016;-73
2022/08/29 11:19:20;;;;;;;5.80;2.70;;;30.80;92.30;;;;;;5110203;28;20016;-73
2022/08/29 11:21:53;;;;;;;5.43;2.58;;;31.20;92.10;;;;;;5113807;28;20040;-72
2022/08/29 11:24:19;;;;;;;10.05;2.72;;;31.20;91.20;;;;;;5116379;28;20024;-73
2022/08/29 11:27:10;;;;;;;5.88;2.78;;;31.20;91.50;;;;;;5114691;28;20035;-73
2022/08/29 11:30:01;;;;;;;3.80;2.08;;;31.10;91.10;;;;;;5117618;28;20544;-72
2022/08/29 11:32:42;;;;;;;6.88;2.97;;;31.10;90.90;;;;;;5117646;28;20024;-72
2022/08/29 11:35:10;;;;;;;6.18;2.65;;;30.90;90.60;;;;;;5116963;28;20551;-73
2022/08/29 11:38:01;;;;;;;6.03;2.35;;;31.10;90.40;;;;;;5117590;28;20032;-73
2022/08/29 11:40:27;;;;;;;;;;;31.20;89.60;;;;;;5108081;28;20020;-73
2022/08/29 11:42:55;;;;;;;4.05;2.35;;;31.60;89.90;;;;;;5117541;28;19904;-73
2022/08/29 11:45:25;;;;;;;6.90;2.10;;;31.70;88.10;;;;;;5117452;28;20016;-73
2022/08/29 11:47:57;;;;;;;10.13;2.28;;;31.70;87.50;;;;;;5117318;28;20024;-73
2022/08/29 11:50:35;;;;;;;4.28;2.50;;;31.80;86.70;;;;;;5117329;28;20480;-73
2022/08/29 11:53:19;;;;;;;4.95;2.63;;;31.70;86.90;;;;;;5115878;28;20031;-73
2022/08/29 11:56:14;;;;;;;8.13;1.98;;;31.90;86.30;;;;;;5110878;28;20165;-73
2022/08/29 11:58:55;;;;;;;3.72;2.08;;;32.00;86.40;;;;;;5110736;28;20011;-73
2022/08/29 12:01:24;;;;;;;5.13;2.20;;;32.30;84.20;;;;;;5106194;28;20023;-72
2022/08/29 12:03:54;;;;;;;6.90;2.15;;;32.40;82.70;;;;;;5117243;28;20559;-73
2022/08/29 12:06:51;;;;;;;5.68;2.20;;;32.50;81.40;;;;;;5117194;28;20504;-72
2022/08/29 12:09:44;;;;;;;4.32;2.22;;;32.20;79.60;;;;;;5115910;28;20048;-73
2022/08/29 12:12:12;;;;;;;3.38;1.85;;;32.30;80.40;;;;;;5117138;28;20031;-73
2022/08/29 12:14:48;;;;;;;6.75;2.40;;;32.20;80.60;;;;;;5117041;28;20548;-73
2022/08/29 12:17:23;;;;;;;6.35;2.28;;;32.10;80.10;;;;;;5111358;28;20380;-73
2022/08/29 12:19:54;;;;;;;7.00;2.30;;;32.00;80.00;;;;;;5115990;28;20023;-72
2022/08/29 12:22:48;;;;;;;3.20;1.90;;;32.10;78.90;;;;;;5115559;28;20023;-73
2022/08/29 12:25:26;;;;;;;3.40;1.70;;;32.10;78.30;;;;;;5108441;28;20020;-73
2022/08/29 12:28:04;;;;;;;5.78;1.83;;;32.20;78.10;;;;;;5115544;28;20461;-73
2022/08/29 12:30:56;;;;;;;5.63;1.98;;;32.40;78.20;;;;;;5127871;28;20015;-73
2022/08/29 12:33:55;;;;;;;6.45;2.10;;;32.40;76.80;;;;;;5100584;28;20395;-73
2022/08/29 12:36:58;;;;;;;13.02;2.58;;;32.60;77.20;;;;;;5111815;28;20024;-72
2022/08/29 12:39:56;;;;;;;6.00;2.05;;;32.60;77.10;;;;;;5115472;28;20031;-73
2022/08/29 12:42:41;;;;;;;4.85;2.17;;;32.60;77.10;;;;;;5076871;28;20044;-73
2022/08/29 12:45:22;;;;;;;5.07;2.58;;;32.60;76.50;;;;;;5117162;28;20051;-73
2022/08/29 12:47:56;;;;;;;6.07;2.55;;;32.70;77.00;;;;;;5120406;28;20020;-73
2022/08/29 12:50:33;;;;;;;4.90;2.38;;;32.80;76.90;;;;;;5117327;28;20126;-73
2022/08/29 12:53:18;;;;;;;11.48;2.60;;;32.50;78.40;;;;;;5120199;28;20016;-73
2022/08/29 12:55:47;;;;;;;5.50;2.33;;;32.50;78.40;;;;;;5115037;28;20118;-73
2022/08/29 12:58:29;;;;;;;8.50;2.60;;;32.60;79.20;;;;;;5115651;28;20052;-73
2022/08/29 13:00:55;;;;;;;12.60;2.90;;;32.50;78.30;;;;;;5119506;28;20031;-73
2022/08/29 13:03:21;;;;;;;3.85;2.45;;;32.50;80.10;;;;;;5120152;28;20012;-73
2022/08/29 13:05:47;;;;;;;3.83;2.30;;;32.60;79.90;;;;;;5120342;28;20023;-72
2022/08/29 13:08:25;;;;;;;7.82;2.90;;;32.60;80.40;;;;;;5118598;28;20426;-73
2022/08/29 13:11:03;;;;;;;4.57;3.05;;;32.60;81.20;;;;;;5120237;28;20020;-73
2022/08/29 13:13:29;;;;;;;9.60;3.35;;;32.50;81.80;;;;;;5119970;28;20260;-73